Terminal Aerodrome Forecast
Issued by NWS

Home | Current Version | Previous Version | Graphics & Text | Print | Product List | Glossary On
Versions: 1 2 3 4 5 6 7 8 9 10 11 12 13 14 15 16 17 18 19 20
000
FTUS41 KCLE 182334
TAFFDY
TAF
KFDY 182334Z 1900/1924 31015G25KT 3SM -SHRA OVC004
     FM190300 31020G32KT P6SM -SHRA OVC008
     FM190500 31020G35KT P6SM OVC015
     FM190900 29015G30KT P6SM OVC025
     FM191200 27015G25KT P6SM OVC035
     FM192000 27012G20KT P6SM BKN050=

USA.gov is the U.S. government's official web portal to all federal, state and local government web resources and services.